createdAt,value
2023-04-30T00:00:11.633Z,0.00
2023-04-30T00:01:11.808Z,0.00
2023-04-30T00:02:12.011Z,0.00
2023-04-30T00:03:12.212Z,0.00
2023-04-30T00:04:12.354Z,0.00
2023-04-30T00:05:12.499Z,0.00
2023-04-30T00:06:12.677Z,0.00
2023-04-30T00:07:12.838Z,0.00
2023-04-30T00:08:13.008Z,0.00
2023-04-30T00:09:13.183Z,0.00
2023-04-30T00:10:13.359Z,0.00
2023-04-30T00:11:13.516Z,0.00
2023-04-30T00:12:13.702Z,0.00
2023-04-30T00:13:13.858Z,0.00
2023-04-30T00:14:14.044Z,0.00
2023-04-30T00:15:14.234Z,0.00
2023-04-30T00:16:14.458Z,0.00
2023-04-30T00:17:14.587Z,0.00
2023-04-30T00:18:14.755Z,0.00
2023-04-30T00:19:14.950Z,0.00
2023-04-30T00:20:15.110Z,0.00
2023-04-30T00:21:15.280Z,0.00
2023-04-30T00:22:15.458Z,0.00
2023-04-30T00:23:15.628Z,0.00
2023-04-30T00:24:15.834Z,0.00
2023-04-30T00:25:15.991Z,0.00
2023-04-30T00:26:16.159Z,0.00
2023-04-30T00:27:16.332Z,0.00
2023-04-30T00:28:16.510Z,0.00
2023-04-30T00:29:16.750Z,0.00
2023-04-30T00:30:16.863Z,0.00
2023-04-30T00:31:17.025Z,0.00
2023-04-30T00:32:17.232Z,0.00
2023-04-30T00:33:17.384Z,0.00
2023-04-30T00:34:17.563Z,0.00
2023-04-30T00:35:17.735Z,0.00
2023-04-30T00:36:17.901Z,0.00
2023-04-30T00:37:18.088Z,0.00
2023-04-30T00:38:18.254Z,0.00
2023-04-30T00:39:18.465Z,0.00
2023-04-30T00:40:18.607Z,0.00
2023-04-30T00:41:18.769Z,0.00
2023-04-30T00:42:18.935Z,0.00
2023-04-30T00:43:19.116Z,0.00
2023-04-30T00:44:19.329Z,0.00
2023-04-30T00:45:19.487Z,0.00
2023-04-30T00:46:19.743Z,0.00
2023-04-30T00:47:19.880Z,0.00
2023-04-30T00:48:20.042Z,0.00
2023-04-30T00:49:20.217Z,0.00
2023-04-30T00:50:20.388Z,0.00
2023-04-30T00:51:20.568Z,0.00
2023-04-30T00:52:20.753Z,0.00
2023-04-30T00:53:20.933Z,0.00
2023-04-30T00:54:21.119Z,0.00
2023-04-30T00:55:21.311Z,0.00
2023-04-30T00:56:21.478Z,0.00
2023-04-30T00:57:21.676Z,0.00
2023-04-30T00:58:21.808Z,0.00
2023-04-30T00:59:21.988Z,0.00
2023-04-30T01:00:22.186Z,0.00
2023-04-30T01:01:22.381Z,0.00
2023-04-30T01:02:22.676Z,0.00
2023-04-30T01:03:22.851Z,0.00
2023-04-30T01:04:22.901Z,0.00
2023-04-30T01:05:23.055Z,0.00
2023-04-30T01:06:23.290Z,0.00
2023-04-30T01:07:23.436Z,0.00
2023-04-30T01:08:23.604Z,0.00
2023-04-30T01:09:23.784Z,0.00
2023-04-30T01:10:23.962Z,0.00
2023-04-30T01:11:24.136Z,0.00
2023-04-30T01:12:24.329Z,0.00
2023-04-30T01:13:24.510Z,0.00
2023-04-30T01:14:24.685Z,0.00
2023-04-30T01:15:24.852Z,0.00
2023-04-30T01:16:25.092Z,0.00
2023-04-30T01:17:25.218Z,0.00
2023-04-30T01:18:25.488Z,0.00
2023-04-30T01:19:25.567Z,0.00
2023-04-30T01:20:25.725Z,0.00
2023-04-30T01:21:25.890Z,0.00
2023-04-30T01:22:26.083Z,0.00
2023-04-30T01:23:26.247Z,0.00
2023-04-30T01:24:26.457Z,0.00
2023-04-30T01:25:26.634Z,0.00
2023-04-30T01:26:26.826Z,0.00
2023-04-30T01:27:26.967Z,0.00
2023-04-30T01:28:27.166Z,0.00
2023-04-30T01:29:27.377Z,0.00
2023-04-30T01:30:27.475Z,0.00
2023-04-30T01:31:27.692Z,0.00
2023-04-30T01:32:27.875Z,0.00
2023-04-30T01:33:28.005Z,0.00
2023-04-30T01:34:28.167Z,0.00
2023-04-30T01:35:28.330Z,0.00
2023-04-30T01:36:28.512Z,0.00
2023-04-30T01:37:28.691Z,0.00
2023-04-30T01:38:28.859Z,0.00
2023-04-30T01:39:29.036Z,0.00
2023-04-30T01:40:29.204Z,0.00
2023-04-30T01:41:29.375Z,0.00
2023-04-30T01:42:29.600Z,0.00
2023-04-30T01:43:29.726Z,0.00
2023-04-30T01:44:29.898Z,0.00
2023-04-30T01:45:30.079Z,0.00
2023-04-30T01:46:30.337Z,0.00
2023-04-30T01:47:30.517Z,0.00
2023-04-30T01:48:30.604Z,0.00
2023-04-30T01:49:30.786Z,0.00
2023-04-30T01:50:30.965Z,0.00
2023-04-30T01:51:31.126Z,0.00
2023-04-30T01:52:31.307Z,0.00
2023-04-30T01:53:31.470Z,0.00
2023-04-30T01:54:31.650Z,0.00
2023-04-30T01:55:31.822Z,0.00
2023-04-30T01:56:31.985Z,0.00
2023-04-30T01:57:32.199Z,0.00
2023-04-30T01:58:32.323Z,0.00
2023-04-30T01:59:32.496Z,0.00
2023-04-30T02:00:32.665Z,0.00
2023-04-30T02:01:32.940Z,0.00
2023-04-30T02:02:33.089Z,0.00
2023-04-30T02:03:33.263Z,0.00
2023-04-30T02:04:33.355Z,0.00
2023-04-30T02:05:33.550Z,0.00
2023-04-30T02:06:33.724Z,0.00
2023-04-30T02:07:33.897Z,0.00
2023-04-30T02:08:34.059Z,0.00
2023-04-30T02:09:34.217Z,0.00
2023-04-30T02:10:34.393Z,0.00
2023-04-30T02:11:34.553Z,0.00
2023-04-30T02:12:34.742Z,0.00
2023-04-30T02:13:34.909Z,0.00
2023-04-30T02:14:35.122Z,0.00
2023-04-30T02:15:35.243Z,0.00
2023-04-30T02:16:35.500Z,0.00
2023-04-30T02:17:35.612Z,0.00
2023-04-30T02:18:35.756Z,0.00
2023-04-30T02:19:35.934Z,0.00
2023-04-30T02:20:36.138Z,0.00
2023-04-30T02:21:36.263Z,0.00
2023-04-30T02:22:36.490Z,0.00
2023-04-30T02:23:36.607Z,0.00
2023-04-30T02:24:36.792Z,0.00
2023-04-30T02:25:36.963Z,0.00
2023-04-30T02:26:37.110Z,0.00
2023-04-30T02:27:37.303Z,0.00
2023-04-30T02:28:37.471Z,0.00
2023-04-30T02:29:37.634Z,0.00
2023-04-30T02:30:37.789Z,0.00
2023-04-30T02:31:38.018Z,0.00
2023-04-30T02:32:38.224Z,0.00
2023-04-30T02:33:38.307Z,0.00
2023-04-30T02:34:38.465Z,0.00
2023-04-30T02:35:38.641Z,0.00
2023-04-30T02:36:38.814Z,0.00
2023-04-30T02:37:39.018Z,0.00
2023-04-30T02:38:39.182Z,0.00
2023-04-30T02:39:39.358Z,0.00
2023-04-30T02:40:39.516Z,0.00
2023-04-30T02:41:39.700Z,0.00
2023-04-30T02:42:39.872Z,0.00
2023-04-30T02:43:40.055Z,0.00
2023-04-30T02:44:40.236Z,0.00
2023-04-30T02:45:40.454Z,0.00
2023-04-30T02:46:40.579Z,0.00
2023-04-30T02:47:40.814Z,0.00
2023-04-30T02:48:40.930Z,0.00
2023-04-30T02:49:41.117Z,0.00
2023-04-30T02:50:41.286Z,0.00
2023-04-30T02:51:41.444Z,0.00
2023-04-30T02:52:41.614Z,0.00
2023-04-30T02:53:41.782Z,0.00
2023-04-30T02:54:41.939Z,0.00
2023-04-30T02:55:42.114Z,0.00
2023-04-30T02:56:42.281Z,0.00
2023-04-30T02:57:42.468Z,0.00
2023-04-30T02:58:42.630Z,0.00
2023-04-30T02:59:42.798Z,0.00
2023-04-30T03:00:42.965Z,4.00
2023-04-30T03:01:43.209Z,4.00
2023-04-30T03:02:43.490Z,0.00
2023-04-30T03:03:43.586Z,0.00
2023-04-30T03:04:43.656Z,4.00
2023-04-30T03:05:43.831Z,4.00
2023-04-30T03:06:44.149Z,4.00
2023-04-30T03:07:44.195Z,4.00
2023-04-30T03:08:44.359Z,4.00
2023-04-30T03:09:44.528Z,4.00
2023-04-30T03:10:44.696Z,8.00
2023-04-30T03:11:44.873Z,8.00
2023-04-30T03:12:45.049Z,8.00
2023-04-30T03:13:45.227Z,8.00
2023-04-30T03:14:45.378Z,12.00
2023-04-30T03:15:45.566Z,12.00
2023-04-30T03:16:45.744Z,16.00
2023-04-30T03:17:46.435Z,20.00
2023-04-30T03:18:46.075Z,24.00
2023-04-30T03:19:46.272Z,24.00
2023-04-30T03:20:46.449Z,28.00
2023-04-30T03:21:46.650Z,32.00
2023-04-30T03:22:46.796Z,36.00
2023-04-30T03:23:47.003Z,44.00
2023-04-30T03:24:47.154Z,48.00
2023-04-30T03:25:47.342Z,56.00
2023-04-30T03:26:47.508Z,64.00
2023-04-30T03:27:47.776Z,68.00
2023-04-30T03:28:47.869Z,80.00
2023-04-30T03:29:48.010Z,88.00
2023-04-30T03:30:48.168Z,100.00
2023-04-30T03:31:48.539Z,112.00
2023-04-30T03:32:48.556Z,124.00
2023-04-30T03:33:48.797Z,136.00
2023-04-30T03:34:48.904Z,148.00
2023-04-30T03:35:49.081Z,164.00
2023-04-30T03:36:49.274Z,180.00
2023-04-30T03:37:49.461Z,200.00
2023-04-30T03:38:49.589Z,212.00
2023-04-30T03:39:49.770Z,236.00
2023-04-30T03:40:49.977Z,256.00
2023-04-30T03:41:50.144Z,276.00
2023-04-30T03:42:51.438Z,296.00
2023-04-30T03:43:50.509Z,324.00
2023-04-30T03:44:50.684Z,344.00
2023-04-30T03:45:50.922Z,368.00
2023-04-30T03:46:51.029Z,396.00
2023-04-30T03:47:51.226Z,428.00
2023-04-30T03:48:51.349Z,452.00
2023-04-30T03:49:51.571Z,484.00
2023-04-30T03:50:51.682Z,516.00
2023-04-30T03:51:51.828Z,552.00
2023-04-30T03:52:52.038Z,588.00
2023-04-30T03:53:52.212Z,620.00
2023-04-30T03:54:52.381Z,656.00
2023-04-30T03:55:52.581Z,692.00
2023-04-30T03:56:52.738Z,732.00
2023-04-30T03:57:52.954Z,772.00
2023-04-30T03:58:53.110Z,828.00
2023-04-30T03:59:53.486Z,888.00
2023-04-30T04:00:53.434Z,924.00
2023-04-30T04:01:53.625Z,960.00
2023-04-30T04:02:53.844Z,1028.00
2023-04-30T04:03:53.968Z,1120.00
2023-04-30T04:04:54.105Z,1232.00
2023-04-30T04:05:54.325Z,1328.00
2023-04-30T04:06:55.392Z,1408.00
2023-04-30T04:07:54.618Z,1508.00
2023-04-30T04:08:54.799Z,1540.00
2023-04-30T04:09:55.160Z,1572.00
2023-04-30T04:10:55.114Z,1640.00
2023-04-30T04:11:55.313Z,1684.00
2023-04-30T04:12:55.487Z,1788.00
2023-04-30T04:13:55.645Z,1832.00
2023-04-30T04:14:55.806Z,1968.00
2023-04-30T04:15:56.012Z,2116.00
2023-04-30T04:16:56.167Z,2288.00
2023-04-30T04:17:56.440Z,2656.00
2023-04-30T04:18:56.517Z,3540.00
2023-04-30T04:19:56.756Z,3840.00
2023-04-30T04:20:56.867Z,3592.00
2023-04-30T04:21:57.038Z,2744.00
2023-04-30T04:22:57.375Z,2520.00
2023-04-30T04:23:57.400Z,2972.00
2023-04-30T04:24:57.569Z,2992.00
2023-04-30T04:25:57.740Z,2572.00
2023-04-30T04:26:57.917Z,2220.00
2023-04-30T04:27:58.111Z,2228.00
2023-04-30T04:28:58.294Z,2280.00
2023-04-30T04:29:58.436Z,2404.00
2023-04-30T04:30:58.610Z,2716.00
2023-04-30T04:31:58.828Z,3404.00
2023-04-30T04:32:59.016Z,3680.00
2023-04-30T04:33:59.152Z,3984.00
2023-04-30T04:34:59.325Z,4448.00
2023-04-30T04:35:59.551Z,4952.00
2023-04-30T04:36:59.694Z,5144.00
2023-04-30T04:37:59.881Z,5280.00
2023-04-30T04:39:00.072Z,5936.00
2023-04-30T04:40:00.220Z,6740.00
2023-04-30T04:41:00.408Z,7220.00
2023-04-30T04:42:00.598Z,6992.00
2023-04-30T04:43:00.806Z,6324.00
2023-04-30T04:44:00.951Z,6148.00
2023-04-30T04:45:01.116Z,5712.00
2023-04-30T04:46:01.317Z,5712.00
2023-04-30T04:47:01.485Z,5680.00
2023-04-30T04:48:01.775Z,5180.00
2023-04-30T04:49:01.847Z,5788.00
2023-04-30T04:50:02.027Z,6460.00
2023-04-30T04:51:02.237Z,6020.00
2023-04-30T04:52:02.412Z,5852.00
2023-04-30T04:53:02.574Z,6240.00
2023-04-30T04:54:02.707Z,6968.00
2023-04-30T04:55:02.884Z,7460.00
2023-04-30T04:56:03.056Z,7272.00
2023-04-30T04:57:03.232Z,6724.00
2023-04-30T04:58:03.425Z,6016.00
2023-04-30T04:59:03.600Z,5684.00
2023-04-30T05:00:03.779Z,5656.00
2023-04-30T05:01:03.943Z,5380.00
2023-04-30T05:02:04.144Z,5124.00
2023-04-30T05:03:04.396Z,5312.00
2023-04-30T05:04:04.463Z,5456.00
2023-04-30T05:05:04.638Z,6040.00
2023-04-30T05:06:04.921Z,6768.00
2023-04-30T05:07:04.993Z,6676.00
2023-04-30T05:08:05.184Z,6564.00
2023-04-30T05:09:05.363Z,7300.00
2023-04-30T05:10:05.543Z,8012.00
2023-04-30T05:11:05.726Z,8360.00
2023-04-30T05:12:05.908Z,7956.00
2023-04-30T05:13:06.113Z,7532.00
2023-04-30T05:14:06.255Z,7788.00
2023-04-30T05:15:06.434Z,8256.00
2023-04-30T05:16:06.666Z,8652.00
2023-04-30T05:17:06.822Z,9156.00
2023-04-30T05:18:07.029Z,9676.00
2023-04-30T05:19:07.144Z,10952.00
2023-04-30T05:20:07.513Z,12952.00
2023-04-30T05:21:07.499Z,14252.00
2023-04-30T05:22:07.682Z,14832.00
2023-04-30T05:23:07.849Z,15276.00
2023-04-30T05:24:08.010Z,15656.00
2023-04-30T05:25:08.251Z,15788.00
2023-04-30T05:26:08.387Z,16160.00
2023-04-30T05:27:08.551Z,16512.00
2023-04-30T05:28:08.726Z,16736.00
2023-04-30T05:29:08.899Z,17088.00
2023-04-30T05:30:09.080Z,17344.00
2023-04-30T05:31:09.237Z,17408.00
2023-04-30T05:32:09.521Z,17440.00
2023-04-30T05:33:09.689Z,17536.00
2023-04-30T05:34:09.740Z,17728.00
2023-04-30T05:35:09.906Z,18176.00
2023-04-30T05:36:10.088Z,18592.00
2023-04-30T05:37:10.270Z,18880.00
2023-04-30T05:38:10.452Z,19072.00
2023-04-30T05:39:10.598Z,18784.00
2023-04-30T05:41:17.169Z,16928.00
2023-04-30T05:42:17.346Z,16576.00
2023-04-30T05:43:17.521Z,16384.00
2023-04-30T05:44:17.760Z,16352.00
2023-04-30T05:45:17.874Z,16108.00
2023-04-30T05:46:18.047Z,15924.00
2023-04-30T05:47:18.211Z,15924.00
2023-04-30T05:48:18.393Z,16064.00
2023-04-30T05:49:18.541Z,16640.00
2023-04-30T05:50:18.734Z,17952.00
2023-04-30T05:51:18.871Z,18240.00
2023-04-30T05:52:19.031Z,18144.00
2023-04-30T05:53:19.213Z,18592.00
2023-04-30T05:54:19.371Z,18464.00
2023-04-30T05:55:19.545Z,18048.00
2023-04-30T05:56:19.709Z,17696.00
2023-04-30T05:57:19.873Z,16704.00
2023-04-30T05:58:20.055Z,16088.00
2023-04-30T05:59:20.224Z,16576.00
2023-04-30T06:00:20.403Z,16408.00
2023-04-30T06:01:20.554Z,16040.00
2023-04-30T06:02:20.823Z,15460.00
2023-04-30T06:03:20.957Z,16228.00
2023-04-30T06:04:21.079Z,17376.00
2023-04-30T06:05:21.371Z,17920.00
2023-04-30T06:06:21.508Z,18048.00
2023-04-30T06:07:21.624Z,18336.00
2023-04-30T06:08:21.816Z,18176.00
2023-04-30T06:09:21.968Z,17664.00
2023-04-30T06:10:22.143Z,16768.00
2023-04-30T06:11:22.302Z,16896.00
2023-04-30T06:12:22.470Z,17728.00
2023-04-30T06:13:22.644Z,18560.00
2023-04-30T06:14:22.821Z,19872.00
2023-04-30T06:15:22.992Z,20800.00
2023-04-30T06:16:23.169Z,21024.00
2023-04-30T06:17:23.349Z,20832.00
2023-04-30T06:18:23.471Z,20704.00
2023-04-30T06:19:23.621Z,20800.00
2023-04-30T06:20:23.804Z,20832.00
2023-04-30T06:21:23.984Z,20768.00
2023-04-30T06:22:24.159Z,20800.00
2023-04-30T06:23:24.355Z,20480.00
2023-04-30T06:24:24.512Z,20544.00
2023-04-30T06:25:24.686Z,20864.00
2023-04-30T06:26:24.880Z,21344.00
2023-04-30T06:27:25.061Z,21824.00
2023-04-30T06:28:25.247Z,22240.00
2023-04-30T06:29:25.398Z,22592.00
2023-04-30T06:30:25.587Z,23136.00
2023-04-30T06:31:25.813Z,23776.00
2023-04-30T06:32:25.985Z,23968.00
2023-04-30T06:33:26.160Z,23136.00
2023-04-30T06:34:26.336Z,24704.00
2023-04-30T06:35:26.530Z,23808.00
2023-04-30T06:36:26.682Z,23200.00
2023-04-30T06:37:26.832Z,22976.00
2023-04-30T06:38:27.034Z,23008.00
2023-04-30T06:39:27.182Z,22880.00
2023-04-30T06:40:27.365Z,21184.00
2023-04-30T06:41:27.561Z,21056.00
2023-04-30T06:42:27.707Z,22272.00
2023-04-30T06:43:27.903Z,23040.00
2023-04-30T06:44:28.064Z,23552.00
2023-04-30T06:45:28.200Z,23584.00
2023-04-30T06:46:28.404Z,23712.00
2023-04-30T06:47:28.602Z,24352.00
2023-04-30T06:48:28.732Z,24544.00
2023-04-30T06:49:28.897Z,24832.00
2023-04-30T06:50:29.084Z,24800.00
2023-04-30T06:51:29.265Z,24192.00
2023-04-30T06:52:29.468Z,24064.00
2023-04-30T06:53:29.629Z,23744.00
2023-04-30T06:54:29.862Z,23808.00
2023-04-30T06:55:29.979Z,24096.00
2023-04-30T06:56:30.157Z,24544.00
2023-04-30T06:57:30.469Z,25216.00
2023-04-30T06:58:30.505Z,24352.00
2023-04-30T06:59:30.667Z,23584.00
2023-04-30T07:00:30.847Z,23424.00
2023-04-30T07:01:31.015Z,22656.00
2023-04-30T07:02:31.273Z,22272.00
2023-04-30T07:03:31.433Z,16796.00
2023-04-30T07:04:31.526Z,21952.00
2023-04-30T07:05:31.710Z,22048.00
2023-04-30T07:06:31.861Z,21280.00
2023-04-30T07:07:32.044Z,21344.00
2023-04-30T07:08:32.195Z,11424.00
2023-04-30T07:09:32.364Z,5196.00
2023-04-30T07:10:32.530Z,22560.00
2023-04-30T07:11:32.727Z,21952.00
2023-04-30T07:12:32.931Z,21696.00
2023-04-30T07:13:33.076Z,21408.00
2023-04-30T07:14:33.256Z,21152.00
2023-04-30T07:15:33.431Z,21824.00
2023-04-30T07:16:33.811Z,21664.00
2023-04-30T07:17:33.833Z,22208.00
2023-04-30T07:18:33.954Z,22816.00
2023-04-30T07:19:34.111Z,23680.00
2023-04-30T07:20:34.299Z,23904.00
2023-04-30T07:21:34.473Z,23904.00
2023-04-30T07:22:34.674Z,23904.00
2023-04-30T07:23:34.845Z,23584.00
2023-04-30T07:24:35.028Z,23904.00
2023-04-30T07:25:35.235Z,24192.00
2023-04-30T07:26:35.390Z,24928.00
2023-04-30T07:27:35.586Z,24800.00
2023-04-30T07:28:35.744Z,25312.00
2023-04-30T07:29:35.923Z,26816.00
2023-04-30T07:30:36.153Z,26752.00
2023-04-30T07:31:36.302Z,26272.00
2023-04-30T07:32:36.515Z,27200.00
2023-04-30T07:33:36.641Z,28288.00
2023-04-30T07:34:36.826Z,29120.00
2023-04-30T07:35:37.009Z,29920.00
2023-04-30T07:36:37.199Z,30112.00
2023-04-30T07:37:38.558Z,30400.00
2023-04-30T07:38:37.561Z,30816.00
2023-04-30T07:39:37.711Z,31488.00
2023-04-30T07:40:37.947Z,32320.00
2023-04-30T07:41:38.094Z,32992.00
2023-04-30T07:42:38.238Z,33760.00
2023-04-30T07:43:38.412Z,34688.00
2023-04-30T07:44:38.596Z,35104.00
2023-04-30T07:45:38.794Z,12736.00
2023-04-30T07:46:39.064Z,36576.00
2023-04-30T07:47:39.216Z,7280.00
2023-04-30T07:48:39.340Z,36768.00
2023-04-30T07:49:39.505Z,38944.00
2023-04-30T07:50:39.689Z,42464.00
2023-04-30T07:51:39.931Z,42272.00
2023-04-30T07:52:40.029Z,39232.00
2023-04-30T07:53:40.203Z,37728.00
2023-04-30T07:54:40.380Z,41376.00
2023-04-30T07:55:40.565Z,11000.00
2023-04-30T07:56:40.768Z,33664.00
2023-04-30T07:57:40.972Z,32448.00
2023-04-30T07:58:41.123Z,29792.00
2023-04-30T07:59:41.289Z,32608.00
2023-04-30T08:00:41.466Z,34944.00
2023-04-30T08:01:41.664Z,38112.00
2023-04-30T08:02:41.902Z,36192.00
2023-04-30T08:03:42.128Z,35424.00
2023-04-30T08:04:42.172Z,37696.00
2023-04-30T08:05:42.364Z,35616.00
2023-04-30T08:06:42.686Z,22624.00
2023-04-30T08:07:42.722Z,29216.00
2023-04-30T08:08:42.883Z,15860.00
2023-04-30T08:09:43.064Z,34048.00
2023-04-30T08:10:43.251Z,19552.00
2023-04-30T08:11:43.427Z,29472.00
2023-04-30T08:12:43.601Z,38208.00
2023-04-30T08:13:43.743Z,37440.00
2023-04-30T08:14:43.940Z,36416.00
2023-04-30T08:15:44.103Z,37024.00
2023-04-30T08:16:44.333Z,39008.00
2023-04-30T08:17:44.481Z,39328.00
2023-04-30T08:18:44.618Z,38560.00
2023-04-30T08:19:44.776Z,40544.00
2023-04-30T08:20:44.974Z,41088.00
2023-04-30T08:21:45.146Z,39616.00
2023-04-30T08:22:45.384Z,38944.00
2023-04-30T08:23:45.515Z,39360.00
2023-04-30T08:24:45.704Z,37952.00
2023-04-30T08:25:45.876Z,39360.00
2023-04-30T08:26:46.075Z,39168.00
2023-04-30T08:27:46.270Z,41600.00
2023-04-30T08:28:46.434Z,44736.00
2023-04-30T08:29:46.574Z,47072.00
2023-04-30T08:30:46.788Z,44960.00
2023-04-30T08:31:47.038Z,40032.00
2023-04-30T08:32:47.173Z,40704.00
2023-04-30T08:33:47.285Z,31136.00
2023-04-30T08:34:47.458Z,28256.00
2023-04-30T08:35:47.625Z,26432.00
2023-04-30T08:36:47.813Z,26784.00
2023-04-30T08:37:47.989Z,26464.00
2023-04-30T08:38:48.155Z,25728.00
2023-04-30T08:39:48.333Z,20992.00
2023-04-30T08:40:51.428Z,16532.00
2023-04-30T08:41:48.667Z,15640.00
2023-04-30T08:42:48.910Z,15132.00
2023-04-30T08:43:49.014Z,14736.00
2023-04-30T08:44:49.159Z,14864.00
2023-04-30T08:45:49.364Z,15204.00
2023-04-30T08:46:49.528Z,15304.00
2023-04-30T08:47:49.765Z,16204.00
2023-04-30T08:48:49.913Z,22784.00
2023-04-30T08:49:50.077Z,30720.00
2023-04-30T08:50:50.248Z,35040.00
2023-04-30T08:51:50.405Z,36160.00
2023-04-30T08:52:50.613Z,34944.00
2023-04-30T08:53:50.765Z,37056.00
2023-04-30T08:54:51.014Z,40416.00
2023-04-30T08:55:51.113Z,42176.00
2023-04-30T08:56:51.283Z,41600.00
2023-04-30T08:57:51.467Z,47872.00
2023-04-30T08:58:51.644Z,56608.00
2023-04-30T08:59:51.824Z,56288.00
2023-04-30T09:00:51.984Z,54720.00
2023-04-30T09:01:53.844Z,55392.00
2023-04-30T09:02:52.429Z,54464.00
2023-04-30T09:03:52.596Z,51616.00
2023-04-30T09:04:52.680Z,50912.00
2023-04-30T09:05:52.882Z,57984.00
2023-04-30T09:06:53.059Z,62368.00
2023-04-30T09:08:03.124Z,60384.00
2023-04-30T09:08:54.412Z,60960.00
2023-04-30T09:09:53.969Z,62208.00
2023-04-30T09:10:53.730Z,62400.00
2023-04-30T09:11:53.907Z,61856.00
2023-04-30T09:12:54.115Z,62144.00
2023-04-30T09:13:54.283Z,63328.00
2023-04-30T09:14:54.454Z,62592.00
2023-04-30T09:15:54.646Z,57600.00
2023-04-30T09:16:54.816Z,54688.00
2023-04-30T09:17:55.036Z,53504.00
2023-04-30T09:18:55.165Z,54400.00
2023-04-30T09:19:55.567Z,53856.00
2023-04-30T09:20:55.532Z,54976.00
2023-04-30T09:21:55.718Z,56448.00
2023-04-30T09:22:55.860Z,58560.00
2023-04-30T09:23:56.020Z,62592.00
2023-04-30T09:24:56.209Z,66848.00
2023-04-30T09:25:56.356Z,69536.00
2023-04-30T09:26:56.560Z,74816.00
2023-04-30T09:27:56.722Z,70304.00
2023-04-30T09:28:56.867Z,68864.00
2023-04-30T09:29:57.155Z,73696.00
2023-04-30T09:30:57.242Z,76032.00
2023-04-30T09:31:57.483Z,73344.00
2023-04-30T09:32:57.659Z,71200.00
2023-04-30T09:33:57.766Z,72832.00
2023-04-30T09:34:57.939Z,75904.00
2023-04-30T09:35:58.121Z,72128.00
2023-04-30T09:36:58.321Z,61536.00
2023-04-30T09:37:58.507Z,51968.00
2023-04-30T09:38:58.669Z,45152.00
2023-04-30T09:39:58.857Z,44832.00
2023-04-30T09:40:59.034Z,45216.00
2023-04-30T09:41:59.228Z,48288.00
2023-04-30T09:42:59.432Z,54144.00
2023-04-30T09:43:59.608Z,55648.00
2023-04-30T09:44:59.770Z,57216.00
2023-04-30T09:46:00.067Z,60512.00
2023-04-30T09:47:00.300Z,68864.00
2023-04-30T09:48:09.231Z,76512.00
2023-04-30T09:49:01.469Z,83520.00
2023-04-30T09:50:00.744Z,84256.00
2023-04-30T09:51:00.829Z,79136.00
2023-04-30T09:52:01.070Z,74688.00
2023-04-30T09:53:01.178Z,75424.00
2023-04-30T09:54:01.353Z,76160.00
2023-04-30T09:55:01.531Z,69696.00
2023-04-30T09:56:01.724Z,68672.00
2023-04-30T09:57:02.168Z,70592.00
2023-04-30T09:58:02.083Z,69216.00
2023-04-30T09:59:02.236Z,69696.00
2023-04-30T10:00:02.435Z,68480.00
2023-04-30T10:01:02.593Z,62560.00
2023-04-30T10:02:02.787Z,60672.00
2023-04-30T10:03:02.986Z,60992.00
2023-04-30T10:04:03.153Z,61792.00
2023-04-30T10:05:03.324Z,60800.00
2023-04-30T10:06:03.605Z,59808.00
2023-04-30T10:07:03.656Z,64416.00
2023-04-30T10:08:03.871Z,61792.00
2023-04-30T10:09:04.013Z,64544.00
2023-04-30T10:10:04.231Z,62304.00
2023-04-30T10:11:04.355Z,54752.00
2023-04-30T10:12:04.548Z,51808.00
2023-04-30T10:13:07.172Z,44672.00
2023-04-30T10:14:04.896Z,41792.00
2023-04-30T10:15:05.050Z,31040.00
2023-04-30T10:16:05.238Z,11580.00
2023-04-30T10:17:05.366Z,5644.00
2023-04-30T10:18:05.626Z,5100.00
2023-04-30T10:19:05.746Z,5020.00
2023-04-30T10:20:05.933Z,4948.00
2023-04-30T10:21:06.184Z,4896.00
2023-04-30T10:22:06.289Z,4840.00
2023-04-30T10:23:06.481Z,4812.00
2023-04-30T10:24:06.668Z,4792.00
2023-04-30T10:25:06.840Z,4764.00
2023-04-30T10:26:07.018Z,4744.00
2023-04-30T10:27:07.217Z,4752.00
2023-04-30T10:28:07.409Z,4736.00
2023-04-30T10:29:07.560Z,4704.00
2023-04-30T10:30:07.760Z,4708.00
2023-04-30T10:31:07.921Z,4712.00
2023-04-30T10:32:08.136Z,4656.00
2023-04-30T10:33:08.385Z,4604.00
2023-04-30T10:34:08.461Z,4604.00
2023-04-30T10:35:08.649Z,4600.00
2023-04-30T10:36:08.846Z,4600.00
2023-04-30T10:37:09.028Z,4596.00
2023-04-30T10:38:09.222Z,4576.00
2023-04-30T10:39:09.381Z,4564.00
2023-04-30T10:40:09.545Z,4532.00
2023-04-30T10:41:09.743Z,4492.00
2023-04-30T10:42:09.873Z,4480.00
2023-04-30T10:43:10.066Z,4464.00
2023-04-30T10:44:10.236Z,4456.00
2023-04-30T10:45:10.389Z,4436.00
2023-04-30T10:46:10.619Z,4436.00
2023-04-30T10:47:10.700Z,4424.00
2023-04-30T10:48:10.994Z,4396.00
2023-04-30T10:49:11.073Z,4368.00
2023-04-30T10:50:11.264Z,4328.00
2023-04-30T10:51:11.416Z,4296.00
2023-04-30T10:52:11.729Z,4280.00
2023-04-30T10:53:11.764Z,4280.00
2023-04-30T10:54:11.955Z,4264.00
2023-04-30T10:55:12.128Z,4264.00
2023-04-30T10:56:12.351Z,4268.00
2023-04-30T10:57:12.608Z,4272.00
2023-04-30T10:58:12.640Z,4284.00
2023-04-30T10:59:12.817Z,4296.00
2023-04-30T11:00:13.126Z,4304.00
2023-04-30T11:01:13.203Z,4284.00
2023-04-30T11:02:13.391Z,4256.00
2023-04-30T11:03:13.564Z,4232.00
2023-04-30T11:04:13.722Z,4224.00
2023-04-30T11:05:14.019Z,4212.00
2023-04-30T11:06:14.123Z,4204.00
2023-04-30T11:07:14.312Z,4216.00
2023-04-30T11:08:14.452Z,4204.00
2023-04-30T11:09:14.653Z,4192.00
2023-04-30T11:10:14.882Z,4160.00
2023-04-30T11:11:15.027Z,4140.00
2023-04-30T11:12:15.220Z,4128.00
2023-04-30T11:13:15.361Z,4128.00
2023-04-30T11:14:15.619Z,4120.00
2023-04-30T11:15:15.705Z,4104.00
2023-04-30T11:16:15.945Z,4088.00
2023-04-30T11:17:16.090Z,4092.00
2023-04-30T11:18:16.255Z,4084.00
2023-04-30T11:19:16.418Z,4084.00
2023-04-30T11:20:16.588Z,4072.00
2023-04-30T11:21:16.752Z,4060.00
2023-04-30T11:22:16.931Z,4064.00
2023-04-30T11:23:22.133Z,4052.00
2023-04-30T11:24:18.239Z,4036.00
2023-04-30T11:25:17.421Z,4016.00
2023-04-30T11:26:17.580Z,4032.00
2023-04-30T11:27:17.771Z,3948.00
2023-04-30T11:28:17.939Z,3908.00
2023-04-30T11:29:18.156Z,3896.00
2023-04-30T11:30:18.260Z,3868.00
2023-04-30T11:31:18.471Z,3848.00
2023-04-30T11:32:18.669Z,3840.00
2023-04-30T11:33:18.791Z,3832.00
2023-04-30T11:34:18.968Z,3824.00
2023-04-30T11:35:19.137Z,3824.00
2023-04-30T11:36:19.312Z,3804.00
2023-04-30T11:37:19.521Z,3784.00
2023-04-30T11:38:19.673Z,3776.00
2023-04-30T11:39:19.854Z,3764.00
2023-04-30T11:40:20.032Z,3736.00
2023-04-30T11:41:20.258Z,3732.00
2023-04-30T11:42:20.429Z,3724.00
2023-04-30T11:43:20.579Z,3712.00
2023-04-30T11:44:20.766Z,3684.00
2023-04-30T11:45:21.164Z,3684.00
2023-04-30T11:46:21.146Z,3664.00
2023-04-30T11:47:21.379Z,3648.00
2023-04-30T11:48:21.494Z,3640.00
2023-04-30T11:49:21.657Z,3632.00
2023-04-30T11:50:21.843Z,3616.00
2023-04-30T11:51:22.250Z,3620.00
2023-04-30T11:52:22.213Z,3608.00
2023-04-30T11:53:22.362Z,3596.00
2023-04-30T11:54:22.523Z,3592.00
2023-04-30T11:55:22.711Z,3584.00
2023-04-30T11:56:22.864Z,3588.00
2023-04-30T11:57:23.033Z,3588.00
2023-04-30T11:58:23.245Z,3576.00
2023-04-30T11:59:23.368Z,3580.00
2023-04-30T12:00:23.558Z,3568.00
2023-04-30T12:01:23.702Z,3560.00
2023-04-30T12:02:24.016Z,3548.00
2023-04-30T12:03:24.075Z,3552.00
2023-04-30T12:04:24.257Z,3528.00
2023-04-30T12:05:24.385Z,3512.00
2023-04-30T12:06:24.659Z,3492.00
2023-04-30T12:07:24.761Z,3480.00
2023-04-30T12:08:24.932Z,3464.00
2023-04-30T12:09:25.087Z,3444.00
2023-04-30T12:10:25.249Z,3432.00
2023-04-30T12:11:25.650Z,3412.00
2023-04-30T12:12:25.588Z,3400.00
2023-04-30T12:13:25.761Z,3388.00
2023-04-30T12:14:25.972Z,3388.00
2023-04-30T12:15:26.107Z,3376.00
2023-04-30T12:16:26.306Z,3376.00
2023-04-30T12:17:26.453Z,3364.00
2023-04-30T12:18:26.586Z,3356.00
2023-04-30T12:19:26.775Z,3344.00